createdAt,value
2022-08-02T00:01:18.900Z,5.60
2022-08-02T00:03:45.546Z,5.40
2022-08-02T00:06:12.336Z,5.00
2022-08-02T00:08:38.936Z,5.55
2022-08-02T00:11:05.840Z,5.32
2022-08-02T00:13:32.718Z,5.80
2022-08-02T00:15:59.446Z,5.75
2022-08-02T00:18:26.071Z,5.95
2022-08-02T00:20:52.792Z,6.07
2022-08-02T00:23:19.572Z,5.82
2022-08-02T00:25:54.448Z,6.53
2022-08-02T00:28:23.526Z,7.35
2022-08-02T00:30:55.186Z,6.90
2022-08-02T00:34:27.489Z,6.38
2022-08-02T00:36:08.430Z,6.88
2022-08-02T00:38:35.211Z,6.47
2022-08-02T00:41:01.824Z,6.72
2022-08-02T00:43:28.402Z,6.28
2022-08-02T00:46:02.443Z,6.25
2022-08-02T00:48:30.470Z,7.30
2022-08-02T00:50:57.943Z,7.75
2022-08-02T00:53:24.597Z,7.53
2022-08-02T00:55:51.322Z,7.63
2022-08-02T00:58:19.484Z,8.30
2022-08-02T01:00:46.621Z,7.85
2022-08-02T01:03:13.256Z,7.65
2022-08-02T01:06:10.129Z,8.40
2022-08-02T01:08:29.400Z,7.70
2022-08-02T01:10:58.504Z,8.00
2022-08-02T01:13:25.953Z,8.90
2022-08-02T01:16:04.142Z,8.48
2022-08-02T01:18:40.402Z,8.20
2022-08-02T01:21:34.788Z,8.02
2022-08-02T01:24:26.458Z,8.40
2022-08-02T01:27:23.140Z,7.53
2022-08-02T01:29:53.890Z,8.50
2022-08-02T01:32:26.698Z,8.00
2022-08-02T01:34:59.801Z,8.30
2022-08-02T01:37:38.093Z,8.47
2022-08-02T01:40:09.451Z,7.97
2022-08-02T01:42:38.395Z,9.57
2022-08-02T01:45:07.227Z,8.40
2022-08-02T01:47:38.562Z,9.43
2022-08-02T01:50:07.399Z,9.70
2022-08-02T01:52:37.419Z,9.45
2022-08-02T01:55:09.830Z,9.35
2022-08-02T01:57:54.186Z,9.25
2022-08-02T02:00:23.042Z,9.40
2022-08-02T02:02:52.087Z,10.10
2022-08-02T02:05:22.658Z,10.35
2022-08-02T02:07:56.615Z,10.02
2022-08-02T02:13:03.221Z,10.70
2022-08-02T02:15:35.080Z,9.65
2022-08-02T02:18:12.893Z,12.07
2022-08-02T02:20:42.141Z,11.23
2022-08-02T02:23:08.964Z,10.77
2022-08-02T02:25:41.819Z,12.50
2022-08-02T02:28:24.780Z,11.80
2022-08-02T02:30:58.491Z,10.68
2022-08-02T02:33:29.317Z,11.45
2022-08-02T02:35:58.216Z,9.85
2022-08-02T02:38:28.611Z,10.68
2022-08-02T02:40:57.961Z,13.75
2022-08-02T02:43:27.904Z,13.65
2022-08-02T02:45:56.484Z,12.65
2022-08-02T02:48:23.661Z,11.48
2022-08-02T02:50:50.962Z,12.50
2022-08-02T02:53:19.613Z,12.45
2022-08-02T02:56:02.298Z,10.73
2022-08-02T02:58:31.082Z,10.90
2022-08-02T03:01:16.203Z,10.88
2022-08-02T03:03:44.959Z,11.95
2022-08-02T03:06:14.893Z,12.73
2022-08-02T03:08:42.412Z,15.38
2022-08-02T03:11:09.962Z,13.60
2022-08-02T03:13:37.907Z,13.00
2022-08-02T03:16:04.858Z,14.32
2022-08-02T03:18:36.673Z,12.93
2022-08-02T03:21:09.514Z,13.18
2022-08-02T03:23:36.103Z,13.60
2022-08-02T03:26:02.904Z,14.25
2022-08-02T03:28:29.661Z,14.35
2022-08-02T03:30:56.455Z,12.60
2022-08-02T03:33:24.561Z,13.23
2022-08-02T03:35:52.949Z,12.77
2022-08-02T03:38:22.693Z,13.43
2022-08-02T03:40:56.266Z,13.32
2022-08-02T03:43:24.155Z,14.20
2022-08-02T03:45:57.022Z,15.85
2022-08-02T03:48:34.251Z,17.35
2022-08-02T03:51:02.241Z,14.18
2022-08-02T03:53:29.593Z,13.30
2022-08-02T03:55:56.867Z,14.43
2022-08-02T03:58:24.863Z,14.75
2022-08-02T04:00:57.962Z,13.73
2022-08-02T04:03:25.174Z,15.48
2022-08-02T04:06:03.434Z,15.85
2022-08-02T04:08:35.781Z,17.20
2022-08-02T04:11:23.043Z,14.68
2022-08-02T04:13:49.845Z,14.10
2022-08-02T04:16:22.554Z,13.23
2022-08-02T04:18:56.286Z,12.75
2022-08-02T04:21:26.146Z,14.18
2022-08-02T04:23:53.451Z,14.90
2022-08-02T04:26:26.951Z,15.30
2022-08-02T04:28:55.913Z,14.98
2022-08-02T04:31:22.871Z,14.35
2022-08-02T04:33:50.178Z,13.73
2022-08-02T04:36:31.273Z,12.35
2022-08-02T04:38:58.428Z,14.23
2022-08-02T04:41:37.373Z,15.88
2022-08-02T04:44:08.045Z,14.68
2022-08-02T04:46:36.515Z,14.13
2022-08-02T04:49:03.512Z,14.02
2022-08-02T04:51:38.132Z,15.55
2022-08-02T04:54:09.854Z,15.57
2022-08-02T04:56:38.215Z,15.38
2022-08-02T04:59:05.103Z,16.65
2022-08-02T05:01:32.436Z,13.13
2022-08-02T05:03:59.539Z,13.80
2022-08-02T05:06:26.113Z,12.77
2022-08-02T05:08:53.720Z,12.65
2022-08-02T05:11:36.102Z,14.38
2022-08-02T05:14:04.290Z,17.77
2022-08-02T05:16:32.139Z,15.02
2022-08-02T05:19:00.500Z,13.93
2022-08-02T05:21:28.397Z,15.18
2022-08-02T05:23:55.200Z,15.70
2022-08-02T05:26:21.868Z,15.80
2022-08-02T05:28:48.465Z,16.15
2022-08-02T05:31:15.108Z,15.43
2022-08-02T05:33:41.860Z,15.38
2022-08-02T05:36:09.703Z,16.67
2022-08-02T05:38:37.915Z,17.23
2022-08-02T05:41:05.916Z,17.08
2022-08-02T05:43:32.926Z,16.33
2022-08-02T05:45:59.973Z,15.40
2022-08-02T05:48:31.485Z,16.65
2022-08-02T05:51:10.884Z,16.20
2022-08-02T05:53:45.416Z,17.15
2022-08-02T05:56:43.104Z,18.65
2022-08-02T05:59:26.159Z,19.67
2022-08-02T06:01:57.260Z,17.67
2022-08-02T06:04:36.983Z,16.23
2022-08-02T06:07:10.250Z,17.10
2022-08-02T06:09:39.086Z,16.70
2022-08-02T06:12:09.633Z,16.38
2022-08-02T06:14:37.567Z,16.02
2022-08-02T06:17:07.148Z,18.27
2022-08-02T06:19:50.861Z,15.77
2022-08-02T06:22:42.132Z,17.35
2022-08-02T06:25:11.815Z,16.88
2022-08-02T06:27:54.070Z,16.38
2022-08-02T06:30:20.665Z,15.27
2022-08-02T06:32:51.262Z,15.88
2022-08-02T06:35:18.301Z,15.75
2022-08-02T06:37:55.586Z,16.02
2022-08-02T06:40:35.721Z,16.73
2022-08-02T06:43:20.414Z,14.00
2022-08-02T06:45:47.068Z,12.48
2022-08-02T06:48:13.937Z,11.38
2022-08-02T06:50:42.254Z,10.65
2022-08-02T06:53:10.386Z,9.25
2022-08-02T06:55:44.099Z,7.95
2022-08-02T07:00:38.688Z,9.18
2022-08-02T07:03:06.027Z,7.47
2022-08-02T07:05:32.712Z,7.35
2022-08-02T07:07:59.318Z,6.25
2022-08-02T07:10:25.922Z,9.50
2022-08-02T07:12:52.522Z,5.95
2022-08-02T07:15:19.169Z,6.47
2022-08-02T07:17:45.869Z,5.97
2022-08-02T07:20:13.605Z,5.88
2022-08-02T07:22:40.619Z,6.18
2022-08-02T07:25:08.099Z,5.22
2022-08-02T07:27:35.326Z,5.50
2022-08-02T07:30:02.118Z,7.20
2022-08-02T07:32:30.880Z,5.90
2022-08-02T07:34:58.297Z,5.00
2022-08-02T07:37:54.204Z,5.80
2022-08-02T07:42:49.743Z,2.92
2022-08-02T07:45:16.638Z,3.80
2022-08-02T07:47:44.895Z,3.10
2022-08-02T07:50:13.804Z,2.90
2022-08-02T07:52:41.586Z,2.38
2022-08-02T07:55:09.737Z,2.75
2022-08-02T07:57:37.067Z,2.08
2022-08-02T08:00:06.077Z,1.95
2022-08-02T08:02:39.171Z,2.40
2022-08-02T08:05:07.090Z,2.40
2022-08-02T08:07:34.207Z,2.03
2022-08-02T08:10:01.202Z,2.00
2022-08-02T08:12:28.135Z,2.08
2022-08-02T08:14:54.726Z,1.75
2022-08-02T08:17:21.654Z,1.77
2022-08-02T08:19:50.777Z,1.30
2022-08-02T08:22:20.366Z,1.52
2022-08-02T08:24:48.386Z,1.38
2022-08-02T08:27:15.885Z,1.70
2022-08-02T08:29:43.586Z,1.30
2022-08-02T08:32:16.239Z,1.17
2022-08-02T08:34:45.543Z,1.70
2022-08-02T08:37:16.740Z,1.73
2022-08-02T08:39:57.211Z,1.40
2022-08-02T08:42:27.849Z,1.65
2022-08-02T08:44:56.810Z,1.48
2022-08-02T08:47:24.679Z,1.60
2022-08-02T08:49:55.037Z,1.27
2022-08-02T08:52:25.206Z,2.08
2022-08-02T08:54:52.569Z,1.40
2022-08-02T08:57:20.579Z,1.70
2022-08-02T08:59:47.473Z,1.30
2022-08-02T09:02:19.556Z,1.92
2022-08-02T09:04:54.960Z,1.70
2022-08-02T09:07:25.413Z,1.60
2022-08-02T09:09:55.047Z,2.00
2022-08-02T09:12:22.563Z,1.70
2022-08-02T09:14:50.054Z,2.30
2022-08-02T09:17:17.903Z,1.40
2022-08-02T09:19:45.634Z,1.90
2022-08-02T09:22:14.617Z,2.03
2022-08-02T09:24:45.762Z,1.77
2022-08-02T09:27:15.094Z,2.95
2022-08-02T09:30:12.531Z,1.48
2022-08-02T09:32:43.810Z,1.85
2022-08-02T09:35:11.020Z,1.70
2022-08-02T09:37:37.677Z,1.75
2022-08-02T09:40:06.907Z,1.38
2022-08-02T09:42:34.374Z,1.50
2022-08-02T09:45:02.430Z,1.45
2022-08-02T09:47:30.867Z,1.20
2022-08-02T09:49:58.770Z,1.35
2022-08-02T09:52:37.154Z,1.00
2022-08-02T09:55:11.526Z,1.20
2022-08-02T09:57:39.048Z,1.25
2022-08-02T10:00:15.086Z,1.35
2022-08-02T10:03:11.093Z,1.40
2022-08-02T10:05:56.092Z,1.25
2022-08-02T10:08:33.271Z,1.50
2022-08-02T10:11:00.965Z,1.40
2022-08-02T10:13:34.764Z,1.50
2022-08-02T10:16:06.242Z,1.52
2022-08-02T10:18:41.360Z,1.20
2022-08-02T10:21:16.339Z,1.40
2022-08-02T10:23:44.929Z,1.30
2022-08-02T10:26:18.096Z,1.30
2022-08-02T10:28:49.471Z,1.55
2022-08-02T10:31:26.219Z,1.60
2022-08-02T10:33:55.859Z,1.48
2022-08-02T10:36:27.041Z,1.70
2022-08-02T10:38:55.447Z,1.38
2022-08-02T10:41:48.794Z,1.50
2022-08-02T10:44:24.783Z,1.30
2022-08-02T10:46:52.542Z,1.50
2022-08-02T10:52:09.401Z,1.45
2022-08-02T10:54:41.157Z,1.38
2022-08-02T10:57:19.684Z,1.77
2022-08-02T10:59:46.999Z,1.77
2022-08-02T11:02:14.397Z,1.77
2022-08-02T11:04:41.206Z,1.60
2022-08-02T11:07:16.959Z,1.60
2022-08-02T11:09:48.985Z,1.98
2022-08-02T11:12:18.339Z,1.60
2022-08-02T11:14:59.283Z,1.73
2022-08-02T11:17:28.973Z,2.00
2022-08-02T11:20:10.935Z,2.80
2022-08-02T11:22:38.955Z,1.52
2022-08-02T11:25:23.934Z,2.08
2022-08-02T11:27:58.898Z,1.45
2022-08-02T11:30:27.262Z,1.48
2022-08-02T11:32:59.114Z,1.40
2022-08-02T11:35:37.193Z,1.83
2022-08-02T11:38:18.194Z,1.40
2022-08-02T11:40:46.189Z,1.90
2022-08-02T11:43:23.844Z,1.67
2022-08-02T11:45:52.559Z,1.67
2022-08-02T11:48:37.286Z,1.55
2022-08-02T11:51:14.777Z,1.73
2022-08-02T11:53:59.263Z,1.23
2022-08-02T11:56:30.892Z,1.75
2022-08-02T11:59:05.843Z,1.75
2022-08-02T12:01:36.844Z,1.50
2022-08-02T12:04:18.586Z,1.77
2022-08-02T12:06:55.996Z,2.03
2022-08-02T12:09:23.048Z,1.55
2022-08-02T12:11:51.125Z,1.38
2022-08-02T12:14:18.496Z,1.52
2022-08-02T12:17:04.057Z,1.73
2022-08-02T12:19:30.928Z,1.75
2022-08-02T12:22:17.702Z,1.77
2022-08-02T12:24:53.645Z,1.75
2022-08-02T12:27:34.456Z,1.58
2022-08-02T12:30:13.751Z,1.60
2022-08-02T12:32:41.273Z,1.48
2022-08-02T12:35:13.383Z,1.73
2022-08-02T12:37:42.748Z,1.15
2022-08-02T12:40:32.937Z,1.30
2022-08-02T12:43:01.366Z,1.80
2022-08-02T12:45:40.124Z,1.80
2022-08-02T12:48:08.281Z,1.80
2022-08-02T12:50:37.631Z,1.52
2022-08-02T12:53:16.060Z,1.10
2022-08-02T12:56:02.106Z,1.50
2022-08-02T12:58:31.340Z,1.70
2022-08-02T13:04:39.195Z,1.40
2022-08-02T13:07:06.249Z,1.38
2022-08-02T13:09:41.378Z,1.50
2022-08-02T13:12:08.586Z,1.55
2022-08-02T13:14:40.365Z,1.65
2022-08-02T13:17:09.035Z,1.35
2022-08-02T13:19:36.960Z,1.40
2022-08-02T13:22:04.355Z,1.88
2022-08-02T13:24:40.547Z,1.80
2022-08-02T13:27:20.988Z,1.67
2022-08-02T13:29:48.903Z,2.15
2022-08-02T13:32:17.054Z,2.05
2022-08-02T13:34:44.006Z,3.30
2022-08-02T13:37:10.876Z,1.60
2022-08-02T13:39:37.655Z,1.50
2022-08-02T13:42:05.658Z,2.95
2022-08-02T13:44:33.560Z,1.73
2022-08-02T13:47:01.735Z,2.30
2022-08-02T13:49:51.091Z,55.88
2022-08-02T13:52:15.814Z,1.67
2022-08-02T13:54:42.751Z,1.58
2022-08-02T13:57:09.388Z,1.60
2022-08-02T13:59:57.078Z,1.50
2022-08-02T14:02:22.950Z,1.75
2022-08-02T14:04:49.565Z,2.00
2022-08-02T14:07:16.246Z,1.83
2022-08-02T14:09:43.761Z,1.45
2022-08-02T14:12:11.379Z,1.50
2022-08-02T14:14:38.604Z,1.80
2022-08-02T14:17:05.820Z,1.58
2022-08-02T14:19:32.403Z,1.40
2022-08-02T14:22:11.373Z,1.67
2022-08-02T14:24:39.643Z,1.70
2022-08-02T14:27:06.309Z,1.63
2022-08-02T14:29:32.905Z,1.77
2022-08-02T14:31:59.543Z,1.58
2022-08-02T14:34:26.153Z,1.95
2022-08-02T14:36:54.003Z,1.67
2022-08-02T14:39:21.261Z,1.75
2022-08-02T14:41:58.888Z,2.00
2022-08-02T14:44:28.493Z,1.92
2022-08-02T14:46:55.574Z,3.17
2022-08-02T14:49:25.060Z,3.30
2022-08-02T14:51:54.050Z,1.95
2022-08-02T14:54:20.805Z,1.60
2022-08-02T14:56:56.045Z,1.70
2022-08-02T14:59:22.810Z,1.60
2022-08-02T15:01:49.615Z,1.83
2022-08-02T15:04:16.376Z,1.27
2022-08-02T15:06:43.036Z,1.50
2022-08-02T15:09:09.766Z,1.70
2022-08-02T15:11:48.034Z,2.10
2022-08-02T15:14:17.123Z,1.60
2022-08-02T15:16:59.373Z,1.95
2022-08-02T15:19:52.965Z,1.80
2022-08-02T15:22:16.836Z,1.67
2022-08-02T15:24:45.685Z,1.90
2022-08-02T15:27:14.549Z,1.50
2022-08-02T15:29:42.765Z,1.90
2022-08-02T15:32:09.737Z,1.92
2022-08-02T15:34:36.683Z,1.70
2022-08-02T15:37:03.621Z,1.80
2022-08-02T15:39:30.251Z,1.73
2022-08-02T15:41:57.085Z,1.80
2022-08-02T15:44:24.898Z,1.70
2022-08-02T15:46:51.956Z,1.85
2022-08-02T15:49:20.752Z,2.05
2022-08-02T15:51:47.405Z,1.80
2022-08-02T15:54:13.958Z,2.30
2022-08-02T15:56:40.581Z,1.58
2022-08-02T15:59:07.245Z,1.60
2022-08-02T16:01:37.944Z,2.10
2022-08-02T16:04:07.107Z,2.00
2022-08-02T16:06:35.171Z,1.90
2022-08-02T16:09:02.607Z,1.77
2022-08-02T16:11:29.488Z,2.00
2022-08-02T16:13:56.779Z,2.10
2022-08-02T16:16:28.457Z,1.88
2022-08-02T16:18:55.745Z,2.10
2022-08-02T16:21:23.624Z,1.98
2022-08-02T16:24:01.759Z,2.33
2022-08-02T16:26:31.645Z,2.00
2022-08-02T16:28:59.828Z,1.70
2022-08-02T16:31:26.556Z,2.25
2022-08-02T16:33:56.695Z,1.83
2022-08-02T16:36:25.487Z,2.05
2022-08-02T16:38:55.468Z,1.88
2022-08-02T16:41:23.139Z,2.97
2022-08-02T16:44:10.840Z,1.90
2022-08-02T16:46:37.465Z,1.90
2022-08-02T16:49:04.554Z,2.00
2022-08-02T16:51:31.227Z,1.90
2022-08-02T16:54:00.662Z,2.50
2022-08-02T16:56:30.563Z,2.30
2022-08-02T16:58:59.585Z,1.92
2022-08-02T17:02:01.938Z,2.35
2022-08-02T17:04:15.542Z,2.83
2022-08-02T17:06:47.289Z,2.55
2022-08-02T17:10:03.804Z,2.63
2022-08-02T17:12:05.775Z,2.03
2022-08-02T17:14:36.742Z,2.10
2022-08-02T17:17:21.524Z,2.20
2022-08-02T17:19:48.131Z,1.95
2022-08-02T17:22:14.996Z,2.13
2022-08-02T17:24:44.387Z,1.98
2022-08-02T17:27:17.165Z,2.53
2022-08-02T17:29:43.853Z,1.83
2022-08-02T17:32:12.984Z,1.95
2022-08-02T17:34:40.079Z,1.92
2022-08-02T17:37:15.734Z,1.77
2022-08-02T17:39:44.167Z,2.15
2022-08-02T17:42:19.563Z,2.17
2022-08-02T17:44:49.049Z,2.08
2022-08-02T17:47:16.340Z,1.88
2022-08-02T17:49:48.130Z,2.03
2022-08-02T17:52:50.743Z,2.03
2022-08-02T17:55:04.164Z,2.20
2022-08-02T17:57:55.843Z,2.30
2022-08-02T18:00:18.004Z,2.40
2022-08-02T18:02:52.808Z,2.35
2022-08-02T18:05:40.191Z,2.40
2022-08-02T18:08:11.213Z,3.00
2022-08-02T18:10:40.880Z,2.05
2022-08-02T18:13:07.726Z,2.20
2022-08-02T18:15:34.670Z,1.92
2022-08-02T18:18:01.675Z,2.22
2022-08-02T18:20:28.308Z,2.20
2022-08-02T18:22:55.570Z,2.22
2022-08-02T18:25:37.760Z,2.17
2022-08-02T18:28:11.598Z,2.45
2022-08-02T18:30:39.043Z,2.33
2022-08-02T18:34:00.268Z,2.65
2022-08-02T18:35:55.290Z,2.10
2022-08-02T18:38:23.230Z,2.08
2022-08-02T18:40:50.814Z,2.42
2022-08-02T18:43:18.802Z,1.98
2022-08-02T18:48:38.538Z,2.08
2022-08-02T18:51:06.879Z,2.50
2022-08-02T18:53:41.225Z,2.20
2022-08-02T18:56:19.857Z,2.58
2022-08-02T18:58:55.511Z,2.53
2022-08-02T19:01:32.124Z,2.33
2022-08-02T19:04:09.778Z,3.03
2022-08-02T19:06:37.450Z,2.58
2022-08-02T19:09:11.212Z,2.58
2022-08-02T19:11:51.266Z,2.38
2022-08-02T19:14:27.299Z,2.25
2022-08-02T19:16:55.595Z,2.80
2022-08-02T19:19:22.610Z,1.90
2022-08-02T19:22:26.521Z,2.38
2022-08-02T19:24:37.107Z,2.38
2022-08-02T19:27:13.422Z,2.58
2022-08-02T19:29:42.815Z,2.22
2022-08-02T19:32:42.694Z,2.47
2022-08-02T19:35:19.421Z,2.35
2022-08-02T19:37:51.359Z,1.80
2022-08-02T19:40:24.194Z,2.10
2022-08-02T19:44:20.681Z,2.20
2022-08-02T19:45:50.045Z,2.40
2022-08-02T19:48:23.866Z,2.55
2022-08-02T19:50:55.813Z,2.15
2022-08-02T19:53:24.246Z,5.40
2022-08-02T19:56:01.511Z,2.60
2022-08-02T19:58:30.872Z,2.55
2022-08-02T20:00:59.317Z,2.47
2022-08-02T20:03:51.036Z,2.10
2022-08-02T20:06:13.840Z,3.03
2022-08-02T20:08:43.106Z,2.50
2022-08-02T20:11:19.946Z,2.45
2022-08-02T20:13:50.203Z,2.03
2022-08-02T20:19:05.111Z,2.55
2022-08-02T20:21:36.245Z,2.80
2022-08-02T20:24:07.734Z,3.05
2022-08-02T20:26:35.236Z,2.92
2022-08-02T20:29:03.988Z,2.63
2022-08-02T20:31:30.810Z,2.55
2022-08-02T20:33:57.703Z,2.53
2022-08-02T20:36:28.489Z,3.00
2022-08-02T20:38:55.651Z,3.20
2022-08-02T20:41:23.498Z,3.10
2022-08-02T20:44:04.038Z,3.15
2022-08-02T20:46:30.634Z,3.08
2022-08-02T20:48:59.535Z,2.97
2022-08-02T20:51:33.840Z,2.78
2022-08-02T20:54:00.561Z,2.50
2022-08-02T20:56:29.412Z,2.70
2022-08-02T20:59:03.690Z,2.60
2022-08-02T21:01:37.066Z,2.30
2022-08-02T21:04:04.173Z,2.60
2022-08-02T21:06:31.147Z,2.38
2022-08-02T21:08:58.723Z,2.47
2022-08-02T21:11:33.540Z,2.92
2022-08-02T21:14:12.122Z,3.88
2022-08-02T21:16:38.919Z,3.15
2022-08-02T21:19:08.042Z,2.75
2022-08-02T21:21:36.387Z,2.70
2022-08-02T21:24:03.276Z,3.15
2022-08-02T21:26:31.279Z,2.80
2022-08-02T21:29:04.471Z,2.60
2022-08-02T21:31:35.825Z,3.08
2022-08-02T21:34:21.531Z,2.45
2022-08-02T21:36:52.554Z,3.08
2022-08-02T21:42:06.974Z,2.53
2022-08-02T21:44:35.465Z,2.42
2022-08-02T21:47:02.140Z,2.50
2022-08-02T21:50:09.692Z,3.55
2022-08-02T21:52:15.535Z,3.20
2022-08-02T21:54:45.551Z,3.15
2022-08-02T21:57:15.434Z,2.63
2022-08-02T21:59:45.374Z,2.50
2022-08-02T22:02:13.088Z,2.30
2022-08-02T22:04:41.633Z,2.63
2022-08-02T22:07:16.151Z,2.25
2022-08-02T22:09:45.448Z,2.40
2022-08-02T22:12:16.965Z,2.80
2022-08-02T22:14:49.673Z,2.63
2022-08-02T22:17:51.867Z,3.20
2022-08-02T22:20:09.390Z,2.40
2022-08-02T22:22:39.348Z,2.90
2022-08-02T22:25:06.407Z,2.53
2022-08-02T22:28:36.191Z,3.08
2022-08-02T22:30:23.591Z,2.92
2022-08-02T22:33:14.951Z,2.72
2022-08-02T22:35:42.373Z,2.95
2022-08-02T22:38:17.389Z,2.90
2022-08-02T22:40:49.439Z,3.22
2022-08-02T22:43:22.424Z,2.42
2022-08-02T22:45:49.375Z,2.70
2022-08-02T22:48:16.262Z,3.00
2022-08-02T22:50:43.135Z,2.65
2022-08-02T22:53:09.733Z,2.90
2022-08-02T22:55:41.403Z,2.85
2022-08-02T22:58:09.112Z,3.15
2022-08-02T22:58:57.897Z,2.50
2022-08-02T22:59:03.237Z,2.30
2022-08-02T22:59:05.254Z,2.80
2022-08-02T23:00:35.687Z,2.83
2022-08-02T23:03:02.986Z,2.72
2022-08-02T23:05:33.448Z,3.13
2022-08-02T23:08:00.160Z,3.58
2022-08-02T23:10:27.017Z,2.92
2022-08-02T23:12:56.555Z,3.38
2022-08-02T23:15:23.603Z,3.17
2022-08-02T23:18:08.684Z,3.05
2022-08-02T23:20:35.440Z,3.13
2022-08-02T23:23:02.178Z,3.20
2022-08-02T23:25:28.792Z,3.10
2022-08-02T23:27:55.382Z,3.15
2022-08-02T23:30:22.094Z,3.30
2022-08-02T23:32:48.684Z,3.08
2022-08-02T23:35:17.101Z,3.42
2022-08-02T23:37:59.297Z,3.67
2022-08-02T23:40:40.375Z,3.40
2022-08-02T23:43:13.402Z,3.60
2022-08-02T23:45:41.482Z,3.20
2022-08-02T23:48:08.050Z,3.08
2022-08-02T23:50:34.655Z,3.03
2022-08-02T23:53:01.235Z,3.47
2022-08-02T23:55:27.877Z,3.20
2022-08-02T23:57:54.441Z,3.75
